createdAt,value
2017-09-30T00:00:53.112Z,11.73
2017-09-30T00:03:20.591Z,11.03
2017-09-30T00:05:48.062Z,10.50
2017-09-30T00:08:15.543Z,10.07
2017-09-30T00:10:43.010Z,9.63
2017-09-30T00:13:10.517Z,9.90
2017-09-30T00:15:37.984Z,10.10
2017-09-30T00:18:05.533Z,9.13
2017-09-30T00:20:32.997Z,9.73
2017-09-30T00:23:00.565Z,8.80
2017-09-30T00:25:28.111Z,10.20
2017-09-30T00:27:55.593Z,8.63
2017-09-30T00:30:23.141Z,9.90
2017-09-30T00:32:50.691Z,10.10
2017-09-30T00:35:18.162Z,10.90
2017-09-30T00:37:45.710Z,10.23
2017-09-30T00:40:13.192Z,11.53
2017-09-30T00:42:40.648Z,11.43
2017-09-30T00:45:08.173Z,9.60
2017-09-30T00:47:35.636Z,9.97
2017-09-30T00:50:03.192Z,11.47
2017-09-30T00:52:30.655Z,10.30
2017-09-30T00:54:58.149Z,11.13
2017-09-30T00:57:25.666Z,11.83
2017-09-30T00:59:53.229Z,11.20
2017-09-30T01:02:20.689Z,11.47
2017-09-30T01:04:48.159Z,9.93
2017-09-30T01:07:15.635Z,11.57
2017-09-30T01:09:43.113Z,11.13
2017-09-30T01:12:10.594Z,10.60
2017-09-30T01:14:38.107Z,11.20
2017-09-30T01:17:05.606Z,10.37
2017-09-30T01:19:33.075Z,12.00
2017-09-30T01:22:00.569Z,11.47
2017-09-30T01:24:28.043Z,11.20
2017-09-30T01:26:55.541Z,10.27
2017-09-30T01:29:23.012Z,11.70
2017-09-30T01:31:50.507Z,12.83
2017-09-30T01:34:17.963Z,11.90
2017-09-30T01:36:45.449Z,12.67
2017-09-30T01:39:12.927Z,10.77
2017-09-30T01:41:40.425Z,10.90
2017-09-30T01:44:07.898Z,12.70
2017-09-30T01:46:35.368Z,10.90
2017-09-30T01:49:02.856Z,10.20
2017-09-30T01:51:30.414Z,12.77
2017-09-30T01:53:57.910Z,11.53
2017-09-30T01:56:25.393Z,12.50
2017-09-30T01:58:52.888Z,10.47
2017-09-30T02:01:20.352Z,12.17
2017-09-30T02:03:47.868Z,10.43
2017-09-30T02:06:15.328Z,11.27
2017-09-30T02:08:42.921Z,11.67
2017-09-30T02:11:10.499Z,11.93
2017-09-30T02:13:37.977Z,12.27
2017-09-30T02:16:05.457Z,13.10
2017-09-30T02:18:32.963Z,11.37
2017-09-30T02:21:00.501Z,11.20
2017-09-30T02:23:28.012Z,13.07
2017-09-30T02:25:55.479Z,13.17
2017-09-30T02:28:22.968Z,13.10
2017-09-30T02:30:50.549Z,11.93
2017-09-30T02:33:18.020Z,11.90
2017-09-30T02:35:45.866Z,12.10
2017-09-30T02:38:13.429Z,11.30
2017-09-30T02:40:40.989Z,11.87
2017-09-30T02:43:08.535Z,12.67
2017-09-30T02:45:36.105Z,12.97
2017-09-30T02:48:03.560Z,11.90
2017-09-30T02:50:31.113Z,12.30
2017-09-30T02:52:58.692Z,12.10
2017-09-30T02:55:26.180Z,11.70
2017-09-30T02:57:53.649Z,12.90
2017-09-30T03:00:21.139Z,11.80
2017-09-30T03:02:48.595Z,13.20
2017-09-30T03:05:16.104Z,14.00
2017-09-30T03:07:43.575Z,13.30
2017-09-30T03:10:11.080Z,15.20
2017-09-30T03:12:38.551Z,13.07
2017-09-30T03:15:06.093Z,12.90
2017-09-30T03:17:33.646Z,14.37
2017-09-30T03:20:01.199Z,15.10
2017-09-30T03:22:28.773Z,14.80
2017-09-30T03:24:56.246Z,13.00
2017-09-30T03:27:23.740Z,14.10
2017-09-30T03:29:51.210Z,14.40
2017-09-30T03:32:18.701Z,12.67
2017-09-30T03:34:46.162Z,12.57
2017-09-30T03:37:13.635Z,12.20
2017-09-30T03:39:41.088Z,11.90
2017-09-30T03:42:08.629Z,12.10
2017-09-30T03:44:36.093Z,12.40
2017-09-30T03:47:03.580Z,11.00
2017-09-30T03:49:31.039Z,12.23
2017-09-30T03:51:58.512Z,13.13
2017-09-30T03:54:25.976Z,11.30
2017-09-30T03:56:53.460Z,12.00
2017-09-30T03:59:20.929Z,11.77
2017-09-30T04:01:48.401Z,11.60
2017-09-30T04:04:15.889Z,12.60
2017-09-30T04:06:43.384Z,12.13
2017-09-30T04:09:10.894Z,14.10
2017-09-30T04:11:38.361Z,12.17
2017-09-30T04:14:05.841Z,13.07
2017-09-30T04:16:33.331Z,13.13
2017-09-30T04:19:00.815Z,11.50
2017-09-30T04:21:28.346Z,11.13
2017-09-30T04:23:55.901Z,11.37
2017-09-30T04:26:23.457Z,13.20
2017-09-30T04:28:51.133Z,11.33
2017-09-30T04:31:18.612Z,11.17
2017-09-30T04:33:46.238Z,13.10
2017-09-30T04:36:13.700Z,12.23
2017-09-30T04:38:41.171Z,12.70
2017-09-30T04:41:08.634Z,13.23
2017-09-30T04:43:36.145Z,13.97
2017-09-30T04:46:03.612Z,11.40
2017-09-30T04:48:31.181Z,12.87
2017-09-30T04:50:58.738Z,13.90
2017-09-30T04:53:26.209Z,14.50
2017-09-30T04:55:53.754Z,14.10
2017-09-30T04:58:21.207Z,13.93
2017-09-30T05:00:48.692Z,16.30
2017-09-30T05:03:16.214Z,15.10
2017-09-30T05:05:43.893Z,15.40
2017-09-30T05:08:11.441Z,14.23
2017-09-30T05:10:38.932Z,15.70
2017-09-30T05:13:06.449Z,15.80
2017-09-30T05:15:33.909Z,17.07
2017-09-30T05:18:01.402Z,14.60
2017-09-30T05:20:28.869Z,14.40
2017-09-30T05:22:56.347Z,17.40
2017-09-30T05:25:23.820Z,16.87
2017-09-30T05:27:51.318Z,16.13
2017-09-30T05:30:18.777Z,16.90
2017-09-30T05:32:46.302Z,18.43
2017-09-30T05:35:13.779Z,15.40
2017-09-30T05:37:41.331Z,15.10
2017-09-30T05:40:08.795Z,13.37
2017-09-30T05:42:36.288Z,16.17
2017-09-30T05:45:03.795Z,14.03
2017-09-30T05:47:31.389Z,15.90
2017-09-30T05:49:58.852Z,16.37
2017-09-30T05:52:26.419Z,16.27
2017-09-30T05:54:53.931Z,15.47
2017-09-30T05:57:21.404Z,15.07
2017-09-30T05:59:48.899Z,17.00
2017-09-30T06:02:16.367Z,17.63
2017-09-30T06:04:43.965Z,17.17
2017-09-30T06:07:11.528Z,17.37
2017-09-30T06:09:39.023Z,17.20
2017-09-30T06:12:06.506Z,16.50
2017-09-30T06:14:33.991Z,14.80
2017-09-30T06:17:01.448Z,14.80
2017-09-30T06:19:29.213Z,16.47
2017-09-30T06:21:56.689Z,15.63
2017-09-30T06:24:24.223Z,16.83
2017-09-30T06:26:51.716Z,16.57
2017-09-30T06:29:19.193Z,16.90
2017-09-30T06:31:46.695Z,15.00
2017-09-30T06:34:14.163Z,14.93
2017-09-30T06:36:41.659Z,17.10
2017-09-30T06:39:09.172Z,15.17
2017-09-30T06:41:36.667Z,15.07
2017-09-30T06:44:04.129Z,14.50
2017-09-30T06:46:31.616Z,13.70
2017-09-30T06:48:59.101Z,13.07
2017-09-30T06:51:26.605Z,13.80
2017-09-30T06:53:54.068Z,12.77
2017-09-30T06:56:21.547Z,12.87
2017-09-30T06:58:49.037Z,15.13
2017-09-30T07:01:16.499Z,14.47
2017-09-30T07:03:43.980Z,13.70
2017-09-30T07:06:11.445Z,14.03
2017-09-30T07:08:38.961Z,13.23
2017-09-30T07:11:06.415Z,14.17
2017-09-30T07:13:33.965Z,14.00
2017-09-30T07:16:01.424Z,14.57
2017-09-30T07:18:28.909Z,14.53
2017-09-30T07:20:56.408Z,13.70
2017-09-30T07:23:23.902Z,15.17
2017-09-30T07:25:51.379Z,14.50
2017-09-30T07:28:18.908Z,13.63
2017-09-30T07:30:46.371Z,15.27
2017-09-30T07:33:13.855Z,16.10
2017-09-30T07:35:41.341Z,16.27
2017-09-30T07:38:08.807Z,16.43
2017-09-30T07:40:36.339Z,17.27
2017-09-30T07:43:03.860Z,15.93
2017-09-30T07:45:31.343Z,18.80
2017-09-30T07:47:58.799Z,17.57
2017-09-30T07:50:26.279Z,20.50
2017-09-30T07:52:53.731Z,19.27
2017-09-30T07:55:21.252Z,19.47
2017-09-30T07:57:48.728Z,20.47
2017-09-30T08:00:16.262Z,19.63
2017-09-30T08:02:43.825Z,20.97
2017-09-30T08:05:11.381Z,20.77
2017-09-30T08:07:38.927Z,20.53
2017-09-30T08:10:07.108Z,20.53
2017-09-30T08:12:34.597Z,20.87
2017-09-30T08:15:02.048Z,23.20
2017-09-30T08:17:29.562Z,21.83
2017-09-30T08:19:57.037Z,24.07
2017-09-30T08:22:24.529Z,23.33
2017-09-30T08:24:51.993Z,26.47
2017-09-30T08:27:19.489Z,22.20
2017-09-30T08:29:47.023Z,23.33
2017-09-30T08:32:14.499Z,22.10
2017-09-30T08:34:41.955Z,25.30
2017-09-30T08:37:09.490Z,24.57
2017-09-30T08:39:36.962Z,25.63
2017-09-30T08:42:04.458Z,24.00
2017-09-30T08:44:31.953Z,24.30
2017-09-30T08:46:59.412Z,23.90
2017-09-30T08:49:26.898Z,24.17
2017-09-30T08:51:54.369Z,26.90
2017-09-30T08:54:21.851Z,27.77
2017-09-30T08:56:49.387Z,25.97
2017-09-30T08:59:16.873Z,26.20
2017-09-30T09:01:44.341Z,25.90
2017-09-30T09:04:11.818Z,27.83
2017-09-30T09:06:39.319Z,29.17
2017-09-30T09:09:06.859Z,28.23
2017-09-30T09:11:34.316Z,26.50
2017-09-30T09:14:01.804Z,26.00
2017-09-30T09:16:29.269Z,26.90
2017-09-30T09:18:56.770Z,26.20
2017-09-30T09:21:24.251Z,25.70
2017-09-30T09:23:51.820Z,24.80
2017-09-30T09:26:19.299Z,27.50
2017-09-30T09:28:46.834Z,27.97
2017-09-30T09:31:14.321Z,26.20
2017-09-30T09:33:41.780Z,22.90
2017-09-30T09:36:09.274Z,23.20
2017-09-30T09:38:36.731Z,24.27
2017-09-30T09:41:04.208Z,25.63
2017-09-30T09:43:31.690Z,23.27
2017-09-30T09:45:59.233Z,23.30
2017-09-30T09:48:26.792Z,22.70
2017-09-30T09:50:54.256Z,23.40
2017-09-30T09:53:21.911Z,26.27
2017-09-30T09:55:49.382Z,24.80
2017-09-30T09:58:16.859Z,25.20
2017-09-30T10:00:44.320Z,22.90
2017-09-30T10:03:11.804Z,25.60
2017-09-30T10:05:39.264Z,25.80
2017-09-30T10:08:06.866Z,25.50
2017-09-30T10:10:34.324Z,25.87
2017-09-30T10:13:01.983Z,24.67
2017-09-30T10:15:29.452Z,24.80
2017-09-30T10:17:56.915Z,21.80
2017-09-30T10:20:24.397Z,21.00
2017-09-30T10:22:51.894Z,20.00
2017-09-30T10:25:19.372Z,21.53
2017-09-30T10:27:46.929Z,20.33
2017-09-30T10:30:14.421Z,21.37
2017-09-30T10:32:41.895Z,20.47
2017-09-30T10:35:08.671Z,19.47
2017-09-30T10:37:36.127Z,21.47
2017-09-30T10:40:03.612Z,18.47
2017-09-30T10:42:31.075Z,20.00
2017-09-30T10:44:58.573Z,20.47
2017-09-30T10:47:26.061Z,19.30
2017-09-30T10:49:53.552Z,19.43
2017-09-30T10:52:21.007Z,19.30
2017-09-30T10:54:48.459Z,19.90
2017-09-30T10:57:15.948Z,21.77
2017-09-30T10:59:43.403Z,19.90
2017-09-30T11:02:10.894Z,19.93
2017-09-30T11:04:38.352Z,19.90
2017-09-30T11:07:05.840Z,18.90
2017-09-30T11:09:33.295Z,21.40
2017-09-30T11:12:00.840Z,21.50
2017-09-30T11:14:28.302Z,20.50
2017-09-30T11:16:55.771Z,20.37
2017-09-30T11:19:23.235Z,18.47
2017-09-30T11:21:50.747Z,18.20
2017-09-30T11:24:18.200Z,16.57
2017-09-30T11:26:45.768Z,15.83
2017-09-30T11:29:13.222Z,15.47
2017-09-30T11:31:40.711Z,18.17
2017-09-30T11:34:08.177Z,18.03
2017-09-30T11:36:35.638Z,18.77
2017-09-30T11:39:03.124Z,17.20
2017-09-30T11:41:30.585Z,17.37
2017-09-30T11:43:58.174Z,18.70
2017-09-30T11:46:25.737Z,16.83
2017-09-30T11:48:53.284Z,18.60
2017-09-30T11:51:20.753Z,15.80
2017-09-30T11:53:48.246Z,14.37
2017-09-30T11:56:15.716Z,15.50
2017-09-30T11:58:43.221Z,16.93
2017-09-30T12:01:10.699Z,14.90
2017-09-30T12:03:38.183Z,17.80
2017-09-30T12:06:05.708Z,15.97
2017-09-30T12:08:33.257Z,19.10
2017-09-30T12:11:00.710Z,18.80
2017-09-30T12:13:28.172Z,18.20
2017-09-30T12:15:55.665Z,18.80
2017-09-30T12:18:23.137Z,17.70
2017-09-30T12:20:50.615Z,17.23
2017-09-30T12:23:18.080Z,17.77
2017-09-30T12:25:45.572Z,16.47
2017-09-30T12:28:13.047Z,17.53
2017-09-30T12:30:40.523Z,14.70
2017-09-30T12:33:07.980Z,15.00
2017-09-30T12:35:35.581Z,14.90
2017-09-30T12:38:03.046Z,14.30
2017-09-30T12:40:30.595Z,13.03
2017-09-30T12:42:58.072Z,14.13
2017-09-30T12:45:25.569Z,14.20
2017-09-30T12:47:53.023Z,13.07
2017-09-30T12:50:20.515Z,11.90
2017-09-30T12:52:48.032Z,11.40
2017-09-30T12:55:15.547Z,10.23
2017-09-30T12:57:43.083Z,7.30
2017-09-30T13:00:10.548Z,5.40
2017-09-30T13:02:38.099Z,2.50
2017-09-30T13:05:05.539Z,1.97
2017-09-30T13:07:33.029Z,1.43
2017-09-30T13:10:00.587Z,1.83
2017-09-30T13:12:28.073Z,0.93
2017-09-30T13:14:55.528Z,0.73
2017-09-30T13:17:23.047Z,0.77
2017-09-30T13:19:50.613Z,1.10
2017-09-30T13:22:18.101Z,0.70
2017-09-30T13:24:45.576Z,0.93
2017-09-30T13:27:13.077Z,0.87
2017-09-30T13:29:40.524Z,0.57
2017-09-30T13:32:07.985Z,0.70
2017-09-30T13:34:35.463Z,1.10
2017-09-30T13:37:02.931Z,0.80
2017-09-30T13:39:30.433Z,0.87
2017-09-30T13:41:57.880Z,0.93
2017-09-30T13:44:25.349Z,1.07
2017-09-30T13:46:52.830Z,0.93
2017-09-30T13:49:20.309Z,0.90
2017-09-30T13:51:47.766Z,1.40
2017-09-30T13:54:15.239Z,1.10
2017-09-30T13:56:42.700Z,1.43
2017-09-30T13:59:10.211Z,1.50
2017-09-30T14:01:37.810Z,0.93
2017-09-30T14:04:05.332Z,1.63
2017-09-30T14:06:32.789Z,1.20
2017-09-30T14:09:00.254Z,0.90
2017-09-30T14:11:27.733Z,1.20
2017-09-30T14:13:55.275Z,1.33
2017-09-30T14:16:22.748Z,0.90
2017-09-30T14:18:50.203Z,1.67
2017-09-30T14:21:17.750Z,1.10
2017-09-30T14:23:45.214Z,1.03
2017-09-30T14:26:12.713Z,1.30
2017-09-30T14:28:40.165Z,1.73
2017-09-30T14:31:07.668Z,1.30
2017-09-30T14:33:35.239Z,1.37
2017-09-30T14:36:02.731Z,2.00
2017-09-30T14:38:30.203Z,2.00
2017-09-30T14:40:57.676Z,1.90
2017-09-30T14:43:25.138Z,1.90
2017-09-30T14:45:52.618Z,2.47
2017-09-30T14:48:20.077Z,2.03
2017-09-30T14:50:47.641Z,1.90
2017-09-30T14:53:15.144Z,1.20
2017-09-30T14:55:42.642Z,1.93
2017-09-30T14:58:10.120Z,1.77
2017-09-30T15:00:37.568Z,1.80
2017-09-30T15:03:05.044Z,1.60
2017-09-30T15:05:32.501Z,1.43
2017-09-30T15:07:59.984Z,1.63
2017-09-30T15:10:27.435Z,2.40
2017-09-30T15:12:54.923Z,1.70
2017-09-30T15:15:22.403Z,1.93
2017-09-30T15:17:49.881Z,3.47
2017-09-30T15:20:17.336Z,2.23
2017-09-30T15:22:44.827Z,1.77
2017-09-30T15:25:12.288Z,1.90
2017-09-30T15:27:39.784Z,1.60
2017-09-30T15:30:07.237Z,0.90
2017-09-30T15:32:34.688Z,1.23
2017-09-30T15:35:02.289Z,1.20
2017-09-30T15:37:29.763Z,0.80
2017-09-30T15:39:57.257Z,1.00
2017-09-30T15:42:24.835Z,1.10
2017-09-30T15:44:52.364Z,1.93
2017-09-30T15:47:19.848Z,1.33
2017-09-30T15:49:47.405Z,1.30
2017-09-30T15:52:14.898Z,1.27
2017-09-30T15:54:42.426Z,1.17
2017-09-30T15:57:09.980Z,1.13
2017-09-30T15:59:37.480Z,1.30
2017-09-30T16:02:04.934Z,1.53
2017-09-30T16:04:32.454Z,1.90
2017-09-30T16:06:59.907Z,1.00
2017-09-30T16:09:27.497Z,1.50
2017-09-30T16:11:54.963Z,1.60
2017-09-30T16:14:22.422Z,9.20
2017-09-30T16:16:49.909Z,3.20
2017-09-30T16:19:17.383Z,1.77
2017-09-30T16:21:44.953Z,1.67
2017-09-30T16:24:12.413Z,1.47
2017-09-30T16:26:39.888Z,1.70
2017-09-30T16:29:07.340Z,2.20
2017-09-30T16:31:34.808Z,1.97
2017-09-30T16:34:02.259Z,1.50
2017-09-30T16:36:29.807Z,2.00
2017-09-30T16:38:57.265Z,6.83
2017-09-30T16:41:24.787Z,6.20
2017-09-30T16:43:52.369Z,3.07
2017-09-30T16:46:19.833Z,1.20
2017-09-30T16:48:47.303Z,1.87
2017-09-30T16:51:14.832Z,1.63
2017-09-30T16:53:42.312Z,1.70
2017-09-30T16:56:09.781Z,3.07
2017-09-30T16:58:37.276Z,2.50
2017-09-30T17:01:04.742Z,2.40
2017-09-30T17:03:32.214Z,2.77
2017-09-30T17:05:59.813Z,2.60
2017-09-30T17:08:27.334Z,1.50
2017-09-30T17:10:54.787Z,2.40
2017-09-30T17:13:22.347Z,2.07
2017-09-30T17:15:49.795Z,2.50
2017-09-30T17:18:17.264Z,2.50
2017-09-30T17:20:44.820Z,2.60
2017-09-30T17:23:12.385Z,2.80
2017-09-30T17:25:39.869Z,2.30
2017-09-30T17:28:07.397Z,2.57
2017-09-30T17:30:34.880Z,2.20
2017-09-30T17:33:02.413Z,2.13
2017-09-30T17:35:29.889Z,2.10
2017-09-30T17:37:57.409Z,2.20
2017-09-30T17:40:24.888Z,1.53
2017-09-30T17:42:52.352Z,1.90
2017-09-30T17:45:19.852Z,2.10
2017-09-30T17:47:47.316Z,2.30
2017-09-30T17:50:14.807Z,2.23
2017-09-30T17:52:42.285Z,2.07
2017-09-30T17:55:09.733Z,1.50
2017-09-30T17:57:37.213Z,1.73
2017-09-30T18:00:04.679Z,1.50
2017-09-30T18:02:32.157Z,1.90
2017-09-30T18:04:59.653Z,2.33
2017-09-30T18:07:27.140Z,2.20
2017-09-30T18:09:54.663Z,2.27
2017-09-30T18:12:22.130Z,2.60
2017-09-30T18:14:49.688Z,2.07
2017-09-30T18:17:17.160Z,1.60
2017-09-30T18:19:44.701Z,1.87
2017-09-30T18:22:12.262Z,1.63
2017-09-30T18:24:39.745Z,1.53
2017-09-30T18:27:07.220Z,2.50
2017-09-30T18:29:34.697Z,2.40
2017-09-30T18:32:03.209Z,2.20
2017-09-30T18:34:30.755Z,2.27
2017-09-30T18:36:58.205Z,2.20
2017-09-30T18:39:25.784Z,2.70
2017-09-30T18:41:53.240Z,1.87
2017-09-30T18:44:20.801Z,1.60
2017-09-30T18:46:48.252Z,1.27
2017-09-30T18:49:15.717Z,2.20
2017-09-30T18:51:43.190Z,2.53
2017-09-30T18:54:10.635Z,2.30
2017-09-30T18:56:38.111Z,2.50
2017-09-30T18:59:05.628Z,2.30
2017-09-30T19:01:33.112Z,1.60
2017-09-30T19:04:00.574Z,1.23
2017-09-30T19:06:28.108Z,2.00
2017-09-30T19:08:55.667Z,1.20
2017-09-30T19:11:23.133Z,1.30
2017-09-30T19:13:50.681Z,1.80
2017-09-30T19:16:18.159Z,1.90
2017-09-30T19:18:45.698Z,1.70
2017-09-30T19:21:13.164Z,1.83
2017-09-30T19:23:40.641Z,2.23
2017-09-30T19:26:08.174Z,1.97
2017-09-30T19:28:35.653Z,1.90
2017-09-30T19:31:03.107Z,1.70
2017-09-30T19:33:30.654Z,2.30
2017-09-30T19:35:58.109Z,1.50
2017-09-30T19:38:25.579Z,7.63
2017-09-30T19:40:53.046Z,11.70
2017-09-30T19:43:20.590Z,15.43
2017-09-30T19:45:48.048Z,13.80
2017-09-30T19:48:15.590Z,9.93
2017-09-30T19:50:43.055Z,3.70
2017-09-30T19:53:10.537Z,4.60
2017-09-30T19:55:37.988Z,3.60
2017-09-30T19:58:05.443Z,4.97
2017-09-30T20:00:32.926Z,3.70
2017-09-30T20:03:00.382Z,2.10
2017-09-30T20:05:27.868Z,2.20
2017-09-30T20:07:55.337Z,2.37
2017-09-30T20:10:22.899Z,1.97
2017-09-30T20:12:50.478Z,2.07
2017-09-30T20:15:17.958Z,1.37
2017-09-30T20:17:45.415Z,1.30
2017-09-30T20:20:12.965Z,1.43
2017-09-30T20:22:40.497Z,2.10
2017-09-30T20:25:08.059Z,2.43
2017-09-30T20:27:35.610Z,2.17
2017-09-30T20:30:03.057Z,2.27
2017-09-30T20:32:30.625Z,2.50
2017-09-30T20:34:58.104Z,2.10
2017-09-30T20:37:25.593Z,1.90
2017-09-30T20:39:53.100Z,2.30
2017-09-30T20:42:20.654Z,2.40
2017-09-30T20:44:48.103Z,2.70
2017-09-30T20:47:15.577Z,2.90
2017-09-30T20:49:43.125Z,3.10
2017-09-30T20:52:10.590Z,3.53
2017-09-30T20:54:38.134Z,3.20
2017-09-30T20:57:05.613Z,3.27
2017-09-30T20:59:33.063Z,2.70
2017-09-30T21:02:00.613Z,2.40
2017-09-30T21:04:28.059Z,3.20
2017-09-30T21:06:55.651Z,3.60
2017-09-30T21:09:23.113Z,3.63
2017-09-30T21:11:50.648Z,4.07
2017-09-30T21:14:18.108Z,4.30
2017-09-30T21:16:45.652Z,4.23
2017-09-30T21:19:13.099Z,4.27
2017-09-30T21:21:40.553Z,7.70
2017-09-30T21:24:08.028Z,4.10
2017-09-30T21:26:35.488Z,3.10
2017-09-30T21:29:02.974Z,3.83
2017-09-30T21:31:30.427Z,3.90
2017-09-30T21:33:57.915Z,3.80
2017-09-30T21:36:25.406Z,4.50
2017-09-30T21:38:52.904Z,3.77
2017-09-30T21:41:20.441Z,4.30
2017-09-30T21:43:47.926Z,4.30
2017-09-30T21:46:15.386Z,4.20
2017-09-30T21:48:42.892Z,3.40
2017-09-30T21:51:10.465Z,3.33
2017-09-30T21:53:37.926Z,4.37
2017-09-30T21:56:05.467Z,4.50
2017-09-30T21:58:32.935Z,4.47
2017-09-30T22:01:00.394Z,3.80
2017-09-30T22:03:27.866Z,4.40
2017-09-30T22:05:55.381Z,4.20
2017-09-30T22:08:22.851Z,3.83
2017-09-30T22:10:50.319Z,4.30
2017-09-30T22:13:17.807Z,3.30
2017-09-30T22:15:45.285Z,3.37
2017-09-30T22:18:12.743Z,3.87
2017-09-30T22:20:40.235Z,3.87
2017-09-30T22:23:07.704Z,4.40
2017-09-30T22:25:35.188Z,3.70
2017-09-30T22:28:02.686Z,4.40
2017-09-30T22:30:30.174Z,2.93
2017-09-30T22:32:57.729Z,3.33
2017-09-30T22:35:25.209Z,2.60
2017-09-30T22:37:52.697Z,3.20
2017-09-30T22:40:20.177Z,3.93
2017-09-30T22:42:47.633Z,3.63
2017-09-30T22:45:15.084Z,4.13
2017-09-30T22:47:42.577Z,4.33
2017-09-30T22:50:10.109Z,3.53
2017-09-30T22:52:37.582Z,4.40
2017-09-30T22:55:05.028Z,3.60
2017-09-30T22:57:32.595Z,2.83
2017-09-30T23:00:00.054Z,3.23
2017-09-30T23:02:27.544Z,2.93
2017-09-30T23:04:55.066Z,3.00
2017-09-30T23:07:22.530Z,3.70
2017-09-30T23:09:49.995Z,2.80
2017-09-30T23:12:17.540Z,3.53
2017-09-30T23:14:45.098Z,2.70
2017-09-30T23:17:12.578Z,3.50
2017-09-30T23:19:40.112Z,3.50
2017-09-30T23:22:07.568Z,3.30
2017-09-30T23:24:35.041Z,3.40
2017-09-30T23:27:02.584Z,3.10
2017-09-30T23:29:30.155Z,3.20
2017-09-30T23:31:57.656Z,3.57
2017-09-30T23:34:25.120Z,2.60
2017-09-30T23:36:52.597Z,3.57
2017-09-30T23:39:20.077Z,3.50
2017-09-30T23:41:47.555Z,3.57
2017-09-30T23:44:15.052Z,2.80
2017-09-30T23:46:42.539Z,2.83
2017-09-30T23:49:10.012Z,3.40
2017-09-30T23:51:37.469Z,2.63
2017-09-30T23:54:05.024Z,3.93
2017-09-30T23:56:32.515Z,2.93
2017-09-30T23:58:59.980Z,2.97
